Time;durP1;ratioP1;P1;durP2;ratioP2;P2;SDS_P1;SDS_P2;PMS_P1;PMS_P2;Temp;Humidity;BMP_temperature;BMP_pressure;BME280_temperature;BME280_humidity;BME280_pressure;Samples;Min_cycle;Max_cycle;Signal;HPM_P1;HPM_P2
2021/03/03 00:00:26;;;;;;;21.65;14.48;;;7.00;98.60;;;;;;4918965;29;20246;-79
2021/03/03 00:02:53;;;;;;;17.23;12.98;;;7.10;98.50;;;;;;4918905;29;20211;-79
2021/03/03 00:05:19;;;;;;;17.77;12.68;;;7.10;98.40;;;;;;4919175;29;20206;-80
2021/03/03 00:07:45;;;;;;;19.73;14.43;;;7.10;98.30;;;;;;4918268;29;20234;-79
2021/03/03 00:10:13;;;;;;;22.38;14.90;;;7.10;98.30;;;;;;4918481;29;20242;-79
2021/03/03 00:12:39;;;;;;;17.77;13.77;;;7.10;98.20;;;;;;4919147;29;20215;-79
2021/03/03 00:15:06;;;;;;;19.92;14.30;;;7.10;98.20;;;;;;4918827;29;20211;-80
2021/03/03 00:17:33;;;;;;;18.02;13.90;;;7.00;98.20;;;;;;4923066;29;20209;-79
2021/03/03 00:19:59;;;;;;;16.15;14.10;;;7.00;98.30;;;;;;4925797;29;20613;-79
2021/03/03 00:22:26;;;;;;;17.02;12.20;;;6.90;98.30;;;;;;4924924;29;20217;-79
2021/03/03 00:24:52;;;;;;;24.42;16.80;;;6.90;98.40;;;;;;4921178;29;20674;-80
2021/03/03 00:27:18;;;;;;;17.13;13.20;;;6.90;98.40;;;;;;4918640;29;20226;-80
2021/03/03 00:29:44;;;;;;;18.30;14.38;;;6.90;98.50;;;;;;4918468;29;20893;-80
2021/03/03 00:32:10;;;;;;;19.50;14.45;;;6.80;98.50;;;;;;4918403;29;20211;-79
2021/03/03 00:34:37;;;;;;;19.63;13.90;;;6.80;98.70;;;;;;4919489;29;20214;-78
2021/03/03 00:37:04;;;;;;;17.45;13.68;;;6.80;98.90;;;;;;4922678;29;20229;-80
2021/03/03 00:39:31;;;;;;;20.73;14.07;;;6.70;98.90;;;;;;4918593;29;20309;-80
2021/03/03 00:41:57;;;;;;;18.67;15.43;;;6.70;98.90;;;;;;4918116;29;20206;-80
2021/03/03 00:44:23;;;;;;;19.40;14.23;;;6.70;99.00;;;;;;4918471;29;20210;-80
2021/03/03 00:46:50;;;;;;;20.65;13.52;;;6.60;98.90;;;;;;4918111;29;20230;-80
2021/03/03 00:49:16;;;;;;;20.83;15.20;;;6.60;99.00;;;;;;4917978;29;20226;-80
2021/03/03 00:51:43;;;;;;;17.10;14.18;;;6.60;99.10;;;;;;4918479;29;20213;-80
2021/03/03 00:54:09;;;;;;;21.73;15.57;;;6.60;99.20;;;;;;4918378;29;20221;-79
2021/03/03 00:56:36;;;;;;;23.25;15.60;;;6.50;99.20;;;;;;4918413;29;20561;-80
2021/03/03 00:59:02;;;;;;;24.90;16.02;;;6.50;99.20;;;;;;4917917;29;20751;-79
2021/03/03 01:01:28;;;;;;;22.10;15.35;;;6.50;99.30;;;;;;4917727;29;20214;-80
2021/03/03 01:03:54;;;;;;;20.60;14.63;;;6.50;99.30;;;;;;4918012;29;20224;-80
2021/03/03 01:06:20;;;;;;;17.58;13.60;;;6.50;99.30;;;;;;4917984;29;20218;-79
2021/03/03 01:08:48;;;;;;;22.05;14.20;;;6.50;99.40;;;;;;4917757;29;20245;-80
2021/03/03 01:11:14;;;;;;;22.50;14.63;;;6.40;99.40;;;;;;4917353;29;20265;-79
2021/03/03 01:13:40;;;;;;;19.05;14.05;;;6.40;99.40;;;;;;4918004;29;20234;-80
2021/03/03 01:16:07;;;;;;;20.88;14.52;;;6.40;99.40;;;;;;4918220;29;20237;-80
2021/03/03 01:18:33;;;;;;;21.95;14.75;;;6.40;99.40;;;;;;4917604;29;20253;-80
2021/03/03 01:20:59;;;;;;;23.83;16.60;;;6.40;99.50;;;;;;4917634;29;20206;-80
2021/03/03 01:23:25;;;;;;;23.63;15.60;;;6.40;99.60;;;;;;4923012;29;20232;-80
2021/03/03 01:25:53;;;;;;;23.13;14.88;;;6.40;99.70;;;;;;4918595;29;20213;-80
2021/03/03 01:28:19;;;;;;;23.52;15.07;;;6.40;99.60;;;;;;4917313;29;20282;-80
2021/03/03 01:30:45;;;;;;;30.65;18.95;;;6.30;99.50;;;;;;4917560;29;20695;-80
2021/03/03 01:33:11;;;;;;;18.35;15.43;;;6.30;99.50;;;;;;4909354;29;20236;-80
2021/03/03 01:35:37;;;;;;;20.73;13.57;;;6.40;99.50;;;;;;4917728;29;20258;-80
2021/03/03 01:38:04;;;;;;;18.10;14.13;;;6.40;99.40;;;;;;4917266;29;20238;-80
2021/03/03 01:40:30;;;;;;;22.88;14.73;;;6.40;99.40;;;;;;4917262;29;20254;-80
2021/03/03 01:42:57;;;;;;;17.33;14.15;;;6.40;99.30;;;;;;4917690;29;20214;-80
2021/03/03 01:45:23;;;;;;;16.15;13.50;;;6.40;99.10;;;;;;4917614;29;20241;-80
2021/03/03 01:47:49;;;;;;;20.90;14.50;;;6.40;99.00;;;;;;4917666;29;20581;-80
2021/03/03 01:50:16;;;;;;;19.55;15.93;;;6.50;99.00;;;;;;4917630;29;20238;-80
2021/03/03 01:52:43;;;;;;;20.00;12.70;;;6.50;99.00;;;;;;4917448;29;20729;-80
2021/03/03 01:55:11;;;;;;;18.50;14.10;;;6.50;98.80;;;;;;4917205;29;20730;-79
2021/03/03 01:57:37;;;;;;;36.25;14.55;;;6.60;98.80;;;;;;4917368;29;20221;-80
2021/03/03 02:00:06;;;;;;;17.77;14.27;;;6.60;98.70;;;;;;4918031;29;20230;-80
2021/03/03 02:02:33;;;;;;;19.27;14.15;;;6.60;98.80;;;;;;4921158;29;20211;-79
2021/03/03 02:04:59;;;;;;;17.52;13.38;;;6.60;98.80;;;;;;4921156;29;20213;-80
2021/03/03 02:07:35;;;;;;;21.75;13.63;;;6.60;98.70;;;;;;4921181;29;20281;-79
2021/03/03 02:10:07;;;;;;;22.85;13.57;;;6.60;98.80;;;;;;4924045;29;20249;-78
2021/03/03 02:12:39;;;;;;;20.48;14.15;;;6.60;98.80;;;;;;4923433;29;20565;-80
2021/03/03 02:15:10;;;;;;;26.83;16.45;;;6.50;98.80;;;;;;4920994;29;20215;-80
2021/03/03 02:17:37;;;;;;;17.67;14.30;;;6.50;98.80;;;;;;4921416;29;20557;-80
2021/03/03 02:20:07;;;;;;;22.60;16.35;;;6.50;98.80;;;;;;4920990;29;20226;-80
2021/03/03 02:22:43;;;;;;;18.67;13.98;;;6.50;99.00;;;;;;4920397;29;20265;-80
2021/03/03 02:25:19;;;;;;;16.35;14.52;;;6.40;99.00;;;;;;4920553;29;20214;-80
2021/03/03 02:27:46;;;;;;;19.98;13.57;;;6.40;99.10;;;;;;4920759;29;20281;-80
2021/03/03 02:30:14;;;;;;;19.02;15.63;;;6.40;99.10;;;;;;4920940;29;20238;-80
2021/03/03 02:32:41;;;;;;;18.55;13.70;;;6.40;99.10;;;;;;4920443;29;20225;-80
2021/03/03 02:35:11;;;;;;;23.83;14.60;;;6.40;99.10;;;;;;4920949;29;20214;-80
2021/03/03 02:37:38;;;;;;;20.73;12.63;;;6.40;99.10;;;;;;4920787;29;20686;-80
2021/03/03 02:40:05;;;;;;;20.27;14.00;;;6.40;99.00;;;;;;4920603;29;20226;-80
2021/03/03 02:42:34;;;;;;;16.23;12.75;;;6.40;99.00;;;;;;4920442;29;20217;-80
2021/03/03 02:45:01;;;;;;;16.05;14.18;;;6.40;99.00;;;;;;4920571;29;20292;-80
2021/03/03 02:47:28;;;;;;;32.78;16.20;;;6.40;99.00;;;;;;4920577;29;20222;-79
2021/03/03 02:49:57;;;;;;;19.98;15.40;;;6.40;98.90;;;;;;4920068;29;20309;-80
2021/03/03 02:52:23;;;;;;;20.15;13.77;;;6.50;99.00;;;;;;4920246;29;20287;-80
2021/03/03 02:54:49;;;;;;;21.70;14.07;;;6.50;99.00;;;;;;4920505;29;20301;-80
2021/03/03 02:57:15;;;;;;;18.95;14.90;;;6.50;98.90;;;;;;4921808;29;20218;-78
2021/03/03 02:59:49;;;;;;;21.00;15.00;;;6.50;98.90;;;;;;4924230;29;20233;-80
2021/03/03 03:02:19;;;;;;;16.05;13.10;;;6.50;98.90;;;;;;4919900;29;20222;-81
2021/03/03 03:04:47;;;;;;;19.25;15.20;;;6.50;98.90;;;;;;4919976;29;20210;-80
2021/03/03 03:07:18;;;;;;;24.35;15.40;;;6.50;99.00;;;;;;4920286;29;20230;-80
2021/03/03 03:09:45;;;;;;;23.00;17.20;;;6.50;99.00;;;;;;4919797;29;20242;-79
2021/03/03 03:12:14;;;;;;;18.63;12.43;;;6.50;99.00;;;;;;4917404;29;20210;-80
2021/03/03 03:14:46;;;;;;;21.90;14.45;;;6.50;98.90;;;;;;4922037;29;20233;-78
2021/03/03 03:17:13;;;;;;;18.85;13.75;;;6.50;99.00;;;;;;4926855;29;20214;-78
2021/03/03 03:19:41;;;;;;;19.25;14.65;;;6.40;98.90;;;;;;4926893;29;20234;-78
2021/03/03 03:22:09;;;;;;;20.40;13.93;;;6.50;99.00;;;;;;4924823;29;20218;-80
2021/03/03 03:24:38;;;;;;;19.95;14.35;;;6.50;99.00;;;;;;4920080;29;20271;-80
2021/03/03 03:27:05;;;;;;;21.15;14.40;;;6.40;98.90;;;;;;4919733;29;20282;-80
2021/03/03 03:29:33;;;;;;;18.67;13.90;;;6.40;98.90;;;;;;4920057;29;20230;-80
2021/03/03 03:32:00;;;;;;;17.42;14.43;;;6.40;98.90;;;;;;4919605;29;20270;-80
2021/03/03 03:34:27;;;;;;;18.02;13.50;;;6.40;99.30;;;;;;4919592;29;20678;-80
2021/03/03 03:36:54;;;;;;;23.45;14.13;;;6.40;99.00;;;;;;4919443;29;20210;-80
2021/03/03 03:39:21;;;;;;;18.85;15.27;;;6.40;99.10;;;;;;4919924;29;20286;-79
2021/03/03 03:41:47;;;;;;;24.10;15.10;;;6.40;99.10;;;;;;4919285;29;20214;-80
2021/03/03 03:44:14;;;;;;;20.02;13.75;;;6.40;99.00;;;;;;4919175;29;20214;-80
2021/03/03 03:46:41;;;;;;;19.70;13.45;;;6.40;99.10;;;;;;4919420;29;20217;-80
2021/03/03 03:49:09;;;;;;;19.33;13.88;;;6.40;99.10;;;;;;4919378;29;20230;-80
2021/03/03 03:51:39;;;;;;;19.17;14.75;;;6.40;99.20;;;;;;4919458;29;20214;-80
2021/03/03 03:54:07;;;;;;;19.20;14.73;;;6.40;99.20;;;;;;4919190;29;20214;-79
2021/03/03 03:56:34;;;;;;;20.02;15.15;;;6.30;99.20;;;;;;4919104;29;20214;-80
2021/03/03 03:59:00;;;;;;;23.02;14.43;;;6.30;99.30;;;;;;4919641;29;20241;-80
2021/03/03 04:01:26;;;;;;;19.45;17.25;;;6.20;99.40;;;;;;4918838;29;20895;-80
2021/03/03 04:03:52;;;;;;;28.42;15.77;;;6.20;99.50;;;;;;4919322;29;20210;-80
2021/03/03 04:06:19;;;;;;;17.40;14.93;;;6.10;99.50;;;;;;4918841;29;20737;-80
2021/03/03 04:08:46;;;;;;;24.58;15.15;;;6.20;99.60;;;;;;4919040;29;20245;-80
2021/03/03 04:11:12;;;;;;;19.05;14.25;;;6.10;99.60;;;;;;4918989;29;20265;-80
2021/03/03 04:13:38;;;;;;;15.52;13.95;;;6.10;99.70;;;;;;4918947;29;20697;-79
2021/03/03 04:16:05;;;;;;;21.85;15.80;;;6.10;99.70;;;;;;4918831;29;20214;-80
2021/03/03 04:18:31;;;;;;;24.27;14.65;;;6.10;99.70;;;;;;4919117;29;20281;-80
2021/03/03 04:20:57;;;;;;;25.98;17.77;;;6.10;99.80;;;;;;4919086;29;20270;-81
2021/03/03 04:23:24;;;;;;;18.60;16.08;;;6.00;99.80;;;;;;4918033;29;20239;-79
2021/03/03 04:25:50;;;;;;;22.40;15.57;;;6.00;99.90;;;;;;4918667;29;20210;-79
2021/03/03 04:28:17;;;;;;;20.20;14.43;;;6.00;99.90;;;;;;4918513;29;20226;-79
2021/03/03 04:30:43;;;;;;;23.92;15.60;;;6.00;99.90;;;;;;4918783;29;20207;-78
2021/03/03 04:33:09;;;;;;;18.33;16.17;;;6.00;99.90;;;;;;4918568;29;20206;-79
2021/03/03 04:35:36;;;;;;;21.52;15.75;;;6.00;99.90;;;;;;4918329;29;20213;-79
2021/03/03 04:38:02;;;;;;;25.30;14.15;;;6.00;99.90;;;;;;4918703;29;20203;-80
2021/03/03 04:40:30;;;;;;;20.27;15.82;;;6.00;99.90;;;;;;4918006;29;20721;-79
2021/03/03 04:42:56;;;;;;;21.63;15.45;;;5.90;99.90;;;;;;4918297;29;20214;-79
2021/03/03 04:45:22;;;;;;;19.95;15.20;;;5.90;99.90;;;;;;4918859;29;20253;-80
2021/03/03 04:47:48;;;;;;;22.10;15.13;;;5.90;99.90;;;;;;4923040;29;20726;-79
2021/03/03 04:50:14;;;;;;;17.17;14.93;;;5.90;99.90;;;;;;4933661;29;20237;-79
2021/03/03 04:52:41;;;;;;;29.80;16.98;;;5.90;99.90;;;;;;4934193;29;20210;-79
2021/03/03 04:55:08;;;;;;;22.15;15.38;;;5.90;99.90;;;;;;4933529;29;20214;-79
2021/03/03 04:57:35;;;;;;;19.92;14.70;;;5.90;99.90;;;;;;4934235;29;20206;-78
2021/03/03 05:00:01;;;;;;;26.60;16.60;;;5.90;99.90;;;;;;4933024;29;20234;-79
2021/03/03 05:02:28;;;;;;;17.58;13.63;;;5.90;99.90;;;;;;4933180;29;20217;-78
2021/03/03 05:04:54;;;;;;;20.60;14.27;;;5.80;99.90;;;;;;4933292;29;20569;-78
2021/03/03 05:07:20;;;;;;;19.20;14.98;;;5.80;99.90;;;;;;4933518;29;20237;-79
2021/03/03 05:09:46;;;;;;;22.05;16.73;;;5.80;99.90;;;;;;4933155;29;20238;-79
2021/03/03 05:12:13;;;;;;;21.33;14.85;;;5.80;99.90;;;;;;4933574;29;20206;-79
2021/03/03 05:14:40;;;;;;;18.40;14.00;;;5.80;99.90;;;;;;4935188;29;20226;-79
2021/03/03 05:17:06;;;;;;;16.13;12.80;;;5.80;99.90;;;;;;4933700;29;20218;-78
2021/03/03 05:19:32;;;;;;;27.67;16.67;;;5.80;99.90;;;;;;4930701;29;20234;-78
2021/03/03 05:21:58;;;;;;;26.35;15.13;;;5.80;99.90;;;;;;4932503;29;20210;-78
2021/03/03 05:24:25;;;;;;;18.70;13.98;;;5.80;99.90;;;;;;4933476;29;20214;-79
2021/03/03 05:26:51;;;;;;;20.00;16.00;;;5.80;99.90;;;;;;4933554;29;20214;-78
2021/03/03 05:29:17;;;;;;;27.27;15.98;;;5.70;99.90;;;;;;4933166;29;20231;-78
2021/03/03 05:31:44;;;;;;;21.10;16.27;;;5.70;99.90;;;;;;4932614;29;20238;-80
2021/03/03 05:34:10;;;;;;;21.52;17.23;;;5.70;99.90;;;;;;4931939;29;20206;-80
2021/03/03 05:36:37;;;;;;;24.08;15.23;;;5.70;99.90;;;;;;4931215;29;20207;-80
2021/03/03 05:39:03;;;;;;;20.20;13.93;;;5.70;99.90;;;;;;4932954;29;20226;-80
2021/03/03 05:41:32;;;;;;;20.90;16.20;;;5.70;99.90;;;;;;4932465;29;20218;-80
2021/03/03 05:43:59;;;;;;;22.42;15.77;;;5.70;99.90;;;;;;4932621;29;20218;-80
2021/03/03 05:46:26;;;;;;;20.45;15.88;;;5.60;99.90;;;;;;4932225;29;20221;-80
2021/03/03 05:48:56;;;;;;;19.50;15.45;;;5.60;99.90;;;;;;4931924;29;20234;-80
2021/03/03 05:51:23;;;;;;;18.83;15.25;;;5.60;99.90;;;;;;4931945;29;20218;-80
2021/03/03 05:53:50;;;;;;;24.38;18.58;;;5.60;99.90;;;;;;4932024;29;20206;-79
2021/03/03 05:56:19;;;;;;;20.63;15.27;;;5.60;99.90;;;;;;4931742;29;20236;-80
2021/03/03 05:58:46;;;;;;;23.30;14.93;;;5.60;99.90;;;;;;4932199;29;20236;-80
2021/03/03 06:01:12;;;;;;;20.15;14.90;;;5.50;99.90;;;;;;4933246;29;20210;-79
2021/03/03 06:03:39;;;;;;;17.77;14.43;;;5.50;99.90;;;;;;4932285;29;20217;-79
2021/03/03 06:06:06;;;;;;;31.38;15.77;;;5.50;99.90;;;;;;4933410;29;20222;-79
2021/03/03 06:08:33;;;;;;;27.98;14.70;;;5.50;99.90;;;;;;4933305;29;20230;-79
2021/03/03 06:11:01;;;;;;;21.83;14.70;;;5.50;99.90;;;;;;4933728;29;20222;-79
2021/03/03 06:13:28;;;;;;;21.00;14.98;;;5.40;99.90;;;;;;4934351;29;20218;-79
2021/03/03 06:15:54;;;;;;;21.58;15.05;;;5.50;99.90;;;;;;4934659;29;20221;-80
2021/03/03 06:18:23;;;;;;;22.67;15.77;;;5.50;99.90;;;;;;4933412;29;20202;-80
2021/03/03 06:20:51;;;;;;;22.80;15.25;;;5.40;99.90;;;;;;4932866;29;20214;-79
2021/03/03 06:23:19;;;;;;;25.60;15.60;;;5.40;99.90;;;;;;4932757;29;20214;-79
2021/03/03 06:25:48;;;;;;;19.77;14.88;;;5.40;99.90;;;;;;4933023;29;20214;-80
2021/03/03 06:28:32;;;;;;;23.80;15.13;;;5.20;99.90;;;;;;4932354;29;20631;-80
2021/03/03 06:30:58;;;;;;;25.65;17.58;;;5.20;99.90;;;;;;4932895;29;20274;-79
2021/03/03 06:33:25;;;;;;;21.80;15.35;;;5.30;99.90;;;;;;4932503;29;20218;-79
2021/03/03 06:35:54;;;;;;;20.17;15.25;;;5.30;99.90;;;;;;4932575;29;20214;-78
2021/03/03 06:38:28;;;;;;;25.50;17.95;;;5.40;99.90;;;;;;4932427;29;20210;-79
2021/03/03 06:40:56;;;;;;;30.67;18.30;;;5.40;99.90;;;;;;4932396;29;20273;-79
2021/03/03 06:43:25;;;;;;;23.40;15.50;;;5.50;99.90;;;;;;4931869;29;20213;-80
2021/03/03 06:45:52;;;;;;;20.00;16.40;;;5.50;99.90;;;;;;4932469;29;20210;-80
2021/03/03 06:48:38;;;;;;;22.85;16.65;;;5.60;99.90;;;;;;4935653;29;20230;-79
2021/03/03 06:51:22;;;;;;;24.30;15.77;;;5.70;99.90;;;;;;4935860;29;20214;-79
2021/03/03 06:53:49;;;;;;;23.48;15.10;;;5.70;99.90;;;;;;4935698;29;20195;-80
2021/03/03 06:56:31;;;;;;;22.33;17.20;;;5.80;99.90;;;;;;4936245;29;20210;-79
2021/03/03 06:59:13;;;;;;;23.13;15.70;;;5.90;99.90;;;;;;4935843;29;20226;-79
2021/03/03 07:01:40;;;;;;;24.00;17.30;;;5.90;99.90;;;;;;4935571;29;20563;-80
2021/03/03 07:04:24;;;;;;;19.08;15.75;;;6.00;99.90;;;;;;4935607;29;20640;-79
2021/03/03 07:06:52;;;;;;;19.42;13.68;;;6.10;99.90;;;;;;4934773;29;20210;-80
2021/03/03 07:09:20;;;;;;;20.75;15.20;;;6.20;99.90;;;;;;4935198;29;20238;-79
2021/03/03 07:11:46;;;;;;;25.13;18.40;;;6.30;99.90;;;;;;4935056;29;20295;-79
2021/03/03 07:14:16;;;;;;;26.70;17.02;;;6.30;99.90;;;;;;4935864;29;20241;-79
2021/03/03 07:17:06;;;;;;;24.08;17.90;;;6.40;99.90;;;;;;4935110;29;20217;-79
2021/03/03 07:19:33;;;;;;;21.05;15.88;;;6.50;99.90;;;;;;4935198;29;20238;-80
2021/03/03 07:22:00;;;;;;;23.05;18.90;;;6.60;99.90;;;;;;4934922;29;20221;-80
2021/03/03 07:24:27;;;;;;;18.85;15.70;;;6.70;99.90;;;;;;4934918;29;20210;-80
2021/03/03 07:26:53;;;;;;;23.33;16.08;;;6.80;99.90;;;;;;4935011;29;20210;-80
2021/03/03 07:29:20;;;;;;;23.75;16.90;;;6.90;99.90;;;;;;4935303;29;20234;-80
2021/03/03 07:31:46;;;;;;;21.45;15.18;;;7.10;99.90;;;;;;4934280;29;20214;-80
2021/03/03 07:34:12;;;;;;;20.08;14.57;;;7.20;99.80;;;;;;4934394;29;20489;-80
2021/03/03 07:36:40;;;;;;;21.73;15.35;;;7.30;99.50;;;;;;4933740;29;20206;-80
2021/03/03 07:39:08;;;;;;;21.55;16.60;;;7.40;99.40;;;;;;4933754;29;20226;-79
2021/03/03 07:41:43;;;;;;;21.42;16.83;;;7.50;99.20;;;;;;4933629;29;20608;-80
2021/03/03 07:44:10;;;;;;;29.38;17.40;;;7.60;99.20;;;;;;4926871;29;20198;-82
2021/03/03 07:46:38;;;;;;;22.05;16.35;;;7.60;99.20;;;;;;4925651;29;20305;-81
2021/03/03 07:49:07;;;;;;;23.08;17.58;;;7.80;99.30;;;;;;4926119;29;20658;-82
2021/03/03 07:51:34;;;;;;;22.90;16.75;;;7.90;99.00;;;;;;4925739;29;20361;-82
2021/03/03 07:54:01;;;;;;;19.63;15.27;;;8.00;98.90;;;;;;4927003;29;20674;-83
2021/03/03 07:56:29;;;;;;;18.88;15.13;;;8.10;98.80;;;;;;4924575;29;20212;-82
2021/03/03 07:58:58;;;;;;;21.90;17.50;;;8.30;98.50;;;;;;4914078;29;20223;-81
2021/03/03 08:01:24;;;;;;;18.88;15.82;;;8.40;97.90;;;;;;4912166;29;20218;-82
2021/03/03 08:03:50;;;;;;;17.55;14.57;;;8.50;97.50;;;;;;4912059;29;20671;-82
2021/03/03 08:06:36;;;;;;;24.73;15.75;;;8.60;97.20;;;;;;4912695;29;20213;-82
2021/03/03 08:09:23;;;;;;;19.17;15.13;;;8.70;97.20;;;;;;4922897;29;20236;-82
2021/03/03 08:12:02;;;;;;;17.42;15.45;;;8.80;97.20;;;;;;4913766;29;20457;-82
2021/03/03 08:14:38;;;;;;;23.48;15.57;;;8.80;97.30;;;;;;4923547;29;20206;-82
2021/03/03 08:17:07;;;;;;;24.15;17.05;;;8.90;97.40;;;;;;4917557;29;20206;-82
2021/03/03 08:20:07;;;;;;;21.02;16.70;;;9.10;97.00;;;;;;4918933;29;20232;-83
2021/03/03 08:22:53;;;;;;;22.55;18.27;;;9.10;96.60;;;;;;4906312;29;20216;-85
2021/03/03 08:25:44;;;;;;;25.73;17.63;;;9.20;96.20;;;;;;4905512;29;20201;-82
2021/03/03 08:28:25;;;;;;;18.90;16.07;;;9.30;95.60;;;;;;4896865;29;20500;-82
2021/03/03 08:31:24;;;;;;;17.58;13.85;;;9.40;95.30;;;;;;4905406;29;20489;-83
2021/03/03 08:33:58;;;;;;;22.23;15.67;;;9.40;95.40;;;;;;4863548;29;20264;-82
2021/03/03 08:36:48;;;;;;;20.13;15.20;;;9.50;95.40;;;;;;4903885;29;20452;-82
2021/03/03 08:39:31;;;;;;;25.17;16.47;;;9.60;95.20;;;;;;4903428;29;20238;-81
2021/03/03 08:41:58;;;;;;;20.83;15.47;;;9.70;95.10;;;;;;4903854;29;20532;-81
2021/03/03 08:44:24;;;;;;;20.47;14.90;;;9.80;95.30;;;;;;4904914;29;20449;-80
2021/03/03 08:46:52;;;;;;;21.40;15.47;;;9.90;95.30;;;;;;4911124;29;20461;-81
2021/03/03 08:49:27;;;;;;;18.00;16.23;;;10.00;94.20;;;;;;4913464;29;20568;-79
2021/03/03 08:52:11;;;;;;;23.47;18.40;;;10.20;93.50;;;;;;4914186;29;20469;-81
2021/03/03 08:54:43;;;;;;;20.50;16.53;;;10.20;93.30;;;;;;4914555;29;20482;-81
2021/03/03 08:57:37;;;;;;;19.67;16.33;;;10.30;93.40;;;;;;4914538;29;20520;-81
2021/03/03 09:00:07;;;;;;;20.53;16.87;;;10.30;92.70;;;;;;4914145;29;20558;-81
2021/03/03 09:02:39;;;;;;;20.30;16.50;;;10.40;92.70;;;;;;4914961;29;20479;-80
2021/03/03 09:05:10;;;;;;;24.30;17.40;;;10.40;92.70;;;;;;4914583;29;20459;-81
2021/03/03 09:07:37;;;;;;;21.90;18.00;;;10.50;92.50;;;;;;4914866;29;20495;-80
2021/03/03 09:10:06;;;;;;;17.97;14.73;;;10.50;92.30;;;;;;4916377;29;20489;-81
2021/03/03 09:12:37;;;;;;;17.53;15.60;;;10.60;92.20;;;;;;4916607;29;20489;-81
2021/03/03 09:15:06;;;;;;;21.47;15.57;;;10.60;91.80;;;;;;4917288;29;20466;-80
2021/03/03 09:17:34;;;;;;;18.10;15.50;;;10.60;91.70;;;;;;4916384;29;20454;-81
2021/03/03 09:20:04;;;;;;;20.00;17.83;;;10.60;91.70;;;;;;4914695;29;20963;-80
2021/03/03 09:22:32;;;;;;;23.03;16.03;;;10.60;91.70;;;;;;4914416;29;20459;-80
2021/03/03 09:25:07;;;;;;;18.93;16.93;;;10.70;91.60;;;;;;4913963;29;20457;-80
2021/03/03 09:27:33;;;;;;;23.00;17.70;;;10.70;91.30;;;;;;4913377;29;20550;-80
2021/03/03 09:29:59;;;;;;;21.27;19.00;;;10.70;91.20;;;;;;4913550;29;20493;-80
2021/03/03 09:32:26;;;;;;;21.67;17.10;;;10.70;91.30;;;;;;4913849;29;20450;-81
2021/03/03 09:34:54;;;;;;;31.50;17.60;;;10.70;91.50;;;;;;4914874;29;20457;-80
2021/03/03 09:37:22;;;;;;;24.40;16.20;;;10.80;91.70;;;;;;4915437;29;20462;-81
2021/03/03 09:39:53;;;;;;;25.73;19.83;;;10.90;91.80;;;;;;4914172;29;20482;-81
2021/03/03 09:42:19;;;;;;;22.87;19.60;;;10.90;91.50;;;;;;4914334;29;20447;-81
2021/03/03 09:44:49;;;;;;;23.83;17.27;;;11.10;91.70;;;;;;4914690;29;20486;-81
2021/03/03 09:47:23;;;;;;;26.80;20.20;;;11.20;91.40;;;;;;4914137;29;20527;-80
2021/03/03 09:49:50;;;;;;;25.73;16.77;;;11.20;91.20;;;;;;4913581;29;20506;-81
2021/03/03 09:52:17;;;;;;;22.47;18.67;;;11.30;91.10;;;;;;4913600;29;20510;-82
2021/03/03 09:54:47;;;;;;;21.90;17.00;;;11.40;91.00;;;;;;4913755;29;20545;-81
2021/03/03 09:57:18;;;;;;;22.40;18.60;;;11.40;91.10;;;;;;4913939;29;20540;-81
2021/03/03 09:59:46;;;;;;;22.93;19.00;;;11.50;91.20;;;;;;4914417;29;20484;-82
2021/03/03 10:02:16;;;;;;;22.27;15.53;;;11.60;91.30;;;;;;4914048;29;20459;-81
2021/03/03 10:04:45;;;;;;;21.93;18.57;;;11.60;91.00;;;;;;4914020;29;20466;-79
2021/03/03 10:07:13;;;;;;;25.10;18.80;;;11.70;90.80;;;;;;4914887;29;20462;-80
2021/03/03 10:09:42;;;;;;;24.70;20.10;;;11.80;91.10;;;;;;4914121;29;20482;-81
2021/03/03 10:12:12;;;;;;;29.10;16.63;;;11.90;91.00;;;;;;4914437;29;20493;-81
2021/03/03 10:14:58;;;;;;;18.83;16.43;;;12.00;91.30;;;;;;4914975;29;20440;-81
2021/03/03 10:17:37;;;;;;;20.10;17.90;;;12.10;90.90;;;;;;4914686;29;20454;-80
2021/03/03 10:20:07;;;;;;;24.47;19.10;;;12.20;90.80;;;;;;4914676;29;20467;-82
2021/03/03 10:22:34;;;;;;;28.13;21.50;;;12.30;90.70;;;;;;4916983;29;20439;-82
2021/03/03 10:25:02;;;;;;;23.10;17.67;;;12.50;90.10;;;;;;4917979;29;20506;-80
2021/03/03 10:27:36;;;;;;;30.03;18.43;;;12.50;90.10;;;;;;4918822;29;20454;-80
2021/03/03 10:30:24;;;;;;;19.37;17.30;;;12.60;90.00;;;;;;4917647;29;20478;-81
2021/03/03 10:32:52;;;;;;;22.40;17.70;;;12.70;89.80;;;;;;4917737;29;20466;-80
2021/03/03 10:35:19;;;;;;;22.33;18.23;;;12.80;89.40;;;;;;4917846;29;20454;-81
2021/03/03 10:37:45;;;;;;;19.73;17.17;;;12.80;89.20;;;;;;4918093;29;20443;-81
2021/03/03 10:40:13;;;;;;;21.00;17.57;;;12.90;89.70;;;;;;4918511;29;20482;-82
2021/03/03 10:42:41;;;;;;;23.00;16.90;;;13.00;89.80;;;;;;4917929;29;20856;-81
2021/03/03 10:45:23;;;;;;;26.30;17.60;;;13.10;89.30;;;;;;4917644;29;20485;-80
2021/03/03 10:47:50;;;;;;;22.07;16.83;;;13.30;89.00;;;;;;4914019;29;20497;-82
2021/03/03 10:50:19;;;;;;;24.83;18.70;;;13.40;88.40;;;;;;4902785;29;20522;-81
2021/03/03 10:52:55;;;;;;;20.10;17.00;;;13.60;88.10;;;;;;4902716;29;20456;-81
2021/03/03 10:55:23;;;;;;;21.73;17.30;;;13.80;87.60;;;;;;4902666;29;20460;-81
2021/03/03 10:58:08;;;;;;;20.00;17.90;;;13.80;87.10;;;;;;4902277;29;20473;-81
2021/03/03 11:00:56;;;;;;;20.83;18.73;;;14.00;86.70;;;;;;4902328;29;20455;-81
2021/03/03 11:03:22;;;;;;;24.00;17.80;;;14.00;86.10;;;;;;4902437;29;20507;-82
2021/03/03 11:05:53;;;;;;;23.07;17.90;;;14.10;86.50;;;;;;4902226;29;20963;-80
2021/03/03 11:08:20;;;;;;;23.63;18.07;;;14.10;86.20;;;;;;4902228;29;20495;-82
2021/03/03 11:10:47;;;;;;;21.00;18.20;;;14.20;86.00;;;;;;4901795;29;20469;-81
2021/03/03 11:13:14;;;;;;;20.83;18.70;;;14.40;87.20;;;;;;4901769;29;20472;-82
2021/03/03 11:15:41;;;;;;;20.07;17.90;;;14.50;85.00;;;;;;4902143;29;20527;-81
2021/03/03 11:18:09;;;;;;;18.20;16.33;;;14.60;84.80;;;;;;4901773;29;20458;-81
2021/03/03 11:20:36;;;;;;;21.40;18.23;;;14.70;84.80;;;;;;4902253;29;20461;-81
2021/03/03 11:23:02;;;;;;;20.27;18.10;;;14.70;83.30;;;;;;4901875;29;20471;-81
2021/03/03 11:25:28;;;;;;;24.20;19.30;;;14.80;83.30;;;;;;4901980;29;20453;-82
2021/03/03 11:27:54;;;;;;;21.83;18.03;;;14.80;83.20;;;;;;4901830;29;20492;-82
2021/03/03 11:30:22;;;;;;;18.27;16.57;;;14.80;82.60;;;;;;4901590;29;20482;-82
2021/03/03 11:32:52;;;;;;;21.23;18.73;;;14.80;82.70;;;;;;4900602;29;20456;-81
2021/03/03 11:35:19;;;;;;;18.90;17.00;;;14.80;83.20;;;;;;4902166;29;20473;-81
2021/03/03 11:37:45;;;;;;;22.80;18.07;;;14.80;83.20;;;;;;4901686;29;20864;-82
2021/03/03 11:40:12;;;;;;;19.80;16.60;;;15.00;83.50;;;;;;4902329;29;20480;-81
2021/03/03 11:42:39;;;;;;;20.17;17.13;;;15.10;83.20;;;;;;4902116;29;20460;-82
2021/03/03 11:45:06;;;;;;;20.40;17.20;;;15.30;83.20;;;;;;4901851;29;20471;-82
2021/03/03 11:47:33;;;;;;;19.60;17.80;;;15.50;82.80;;;;;;4901924;29;20555;-82
2021/03/03 11:50:00;;;;;;;20.53;18.00;;;15.70;82.00;;;;;;4902560;29;20488;-82
2021/03/03 11:52:26;;;;;;;19.67;17.60;;;15.90;81.60;;;;;;4902716;29;20468;-82
2021/03/03 11:54:53;;;;;;;21.50;16.60;;;16.10;81.10;;;;;;4902450;29;20936;-82
2021/03/03 11:57:19;;;;;;;22.13;18.10;;;16.30;80.50;;;;;;4902223;29;20462;-82
2021/03/03 11:59:45;;;;;;;22.60;20.33;;;16.40;79.80;;;;;;4902425;29;20471;-81
2021/03/03 12:02:12;;;;;;;19.53;17.63;;;16.50;78.00;;;;;;4901145;29;20468;-82
2021/03/03 12:04:39;;;;;;;20.83;17.90;;;16.60;77.80;;;;;;4901537;29;20456;-82
2021/03/03 12:07:05;;;;;;;18.87;16.77;;;16.60;77.40;;;;;;4901376;29;20867;-82
2021/03/03 12:09:31;;;;;;;22.47;16.60;;;16.70;77.00;;;;;;4901211;29;20498;-82
2021/03/03 12:11:57;;;;;;;19.87;17.77;;;16.80;76.60;;;;;;4905309;29;20434;-80
2021/03/03 12:14:24;;;;;;;24.83;19.03;;;16.90;76.00;;;;;;4906980;29;20996;-81
2021/03/03 12:16:50;;;;;;;22.50;20.17;;;16.90;75.70;;;;;;4905834;29;20461;-81
2021/03/03 12:19:18;;;;;;;21.20;19.20;;;17.00;75.80;;;;;;4903185;29;20482;-81
2021/03/03 12:21:45;;;;;;;19.57;17.63;;;17.00;75.60;;;;;;4900972;29;20494;-81
2021/03/03 12:24:12;;;;;;;21.17;18.60;;;17.00;74.80;;;;;;4900767;29;20492;-81
2021/03/03 12:26:38;;;;;;;19.47;17.50;;;17.00;75.00;;;;;;4900276;29;20527;-81
2021/03/03 12:29:05;;;;;;;20.97;18.90;;;17.00;75.50;;;;;;4900727;29;20506;-81
2021/03/03 12:31:31;;;;;;;30.50;19.10;;;17.10;75.00;;;;;;4900446;29;20473;-81
2021/03/03 12:33:58;;;;;;;19.63;17.43;;;17.10;74.30;;;;;;4900671;29;20457;-82
2021/03/03 12:36:24;;;;;;;19.47;17.30;;;17.10;74.70;;;;;;4900720;29;20457;-81
2021/03/03 12:38:51;;;;;;;21.77;19.50;;;17.10;74.00;;;;;;4900458;29;20481;-82
2021/03/03 12:41:18;;;;;;;19.80;17.77;;;17.10;74.00;;;;;;4900426;29;20462;-81